sensor_id;sensor_type;location;lat;lon;timestamp;P1;durP1;ratioP1;P2;durP2;ratioP2
83982;SDS011;74021;50.782;5.500;2023-12-04T00:01:14;21.75;;;11.10;;
83982;SDS011;74021;50.782;5.500;2023-12-04T00:03:41;19.35;;;11.20;;
83982;SDS011;74021;50.782;5.500;2023-12-04T00:06:07;23.13;;;11.73;;
83982;SDS011;74021;50.782;5.500;2023-12-04T00:08:35;19.70;;;10.15;;
83982;SDS011;74021;50.782;5.500;2023-12-04T00:11:02;17.20;;;9.50;;
83982;SDS011;74021;50.782;5.500;2023-12-04T00:13:28;19.02;;;10.38;;
83982;SDS011;74021;50.782;5.500;2023-12-04T00:15:55;19.98;;;10.95;;
83982;SDS011;74021;50.782;5.500;2023-12-04T00:18:21;18.60;;;9.95;;
83982;SDS011;74021;50.782;5.500;2023-12-04T00:20:47;15.48;;;9.68;;
83982;SDS011;74021;50.782;5.500;2023-12-04T00:23:13;19.35;;;10.43;;
83982;SDS011;74021;50.782;5.500;2023-12-04T00:25:39;18.35;;;9.85;;
83982;SDS011;74021;50.782;5.500;2023-12-04T00:28:05;18.83;;;10.20;;
83982;SDS011;74021;50.782;5.500;2023-12-04T00:30:31;18.10;;;10.23;;
83982;SDS011;74021;50.782;5.500;2023-12-04T00:32:57;18.88;;;10.63;;
83982;SDS011;74021;50.782;5.500;2023-12-04T00:35:23;17.75;;;10.50;;
83982;SDS011;74021;50.782;5.500;2023-12-04T00:37:49;18.45;;;10.80;;
83982;SDS011;74021;50.782;5.500;2023-12-04T00:40:15;18.80;;;10.40;;
83982;SDS011;74021;50.782;5.500;2023-12-04T00:42:42;18.63;;;9.65;;
83982;SDS011;74021;50.782;5.500;2023-12-04T00:45:08;18.88;;;11.00;;
83982;SDS011;74021;50.782;5.500;2023-12-04T00:47:34;16.00;;;9.48;;
83982;SDS011;74021;50.782;5.500;2023-12-04T00:50:00;19.33;;;10.82;;
83982;SDS011;74021;50.782;5.500;2023-12-04T00:52:26;20.75;;;10.90;;
83982;SDS011;74021;50.782;5.500;2023-12-04T00:54:52;18.88;;;10.40;;
83982;SDS011;74021;50.782;5.500;2023-12-04T00:57:18;17.88;;;10.60;;
83982;SDS011;74021;50.782;5.500;2023-12-04T00:59:44;19.65;;;10.27;;
83982;SDS011;74021;50.782;5.500;2023-12-04T01:02:11;18.70;;;10.07;;
83982;SDS011;74021;50.782;5.500;2023-12-04T01:04:39;18.25;;;10.32;;
83982;SDS011;74021;50.782;5.500;2023-12-04T01:07:06;19.50;;;10.13;;
83982;SDS011;74021;50.782;5.500;2023-12-04T01:09:34;16.10;;;9.77;;
83982;SDS011;74021;50.782;5.500;2023-12-04T01:12:00;16.48;;;9.07;;
83982;SDS011;74021;50.782;5.500;2023-12-04T01:14:30;17.80;;;9.98;;
83982;SDS011;74021;50.782;5.500;2023-12-04T01:16:56;18.63;;;9.70;;
83982;SDS011;74021;50.782;5.500;2023-12-04T01:19:22;16.77;;;9.60;;
83982;SDS011;74021;50.782;5.500;2023-12-04T01:21:48;15.40;;;9.02;;
83982;SDS011;74021;50.782;5.500;2023-12-04T01:24:15;16.60;;;8.68;;
83982;SDS011;74021;50.782;5.500;2023-12-04T01:26:41;17.15;;;9.30;;
83982;SDS011;74021;50.782;5.500;2023-12-04T01:29:07;18.50;;;10.15;;
83982;SDS011;74021;50.782;5.500;2023-12-04T01:31:33;16.63;;;10.23;;
83982;SDS011;74021;50.782;5.500;2023-12-04T01:34:00;16.77;;;9.63;;
83982;SDS011;74021;50.782;5.500;2023-12-04T01:36:26;17.17;;;9.23;;
83982;SDS011;74021;50.782;5.500;2023-12-04T01:38:55;16.35;;;8.80;;
83982;SDS011;74021;50.782;5.500;2023-12-04T01:41:21;17.27;;;9.45;;
83982;SDS011;74021;50.782;5.500;2023-12-04T01:43:48;18.17;;;9.13;;
83982;SDS011;74021;50.782;5.500;2023-12-04T01:46:15;15.00;;;8.82;;
83982;SDS011;74021;50.782;5.500;2023-12-04T01:48:43;18.00;;;9.30;;
83982;SDS011;74021;50.782;5.500;2023-12-04T01:51:12;16.13;;;9.18;;
83982;SDS011;74021;50.782;5.500;2023-12-04T01:53:39;14.02;;;8.25;;
83982;SDS011;74021;50.782;5.500;2023-12-04T01:56:06;14.88;;;8.50;;
83982;SDS011;74021;50.782;5.500;2023-12-04T01:58:33;14.25;;;8.48;;
83982;SDS011;74021;50.782;5.500;2023-12-04T02:01:00;19.38;;;9.43;;
83982;SDS011;74021;50.782;5.500;2023-12-04T02:03:26;14.32;;;8.85;;
83982;SDS011;74021;50.782;5.500;2023-12-04T02:05:53;12.95;;;7.93;;
83982;SDS011;74021;50.782;5.500;2023-12-04T02:08:24;15.82;;;8.70;;
83982;SDS011;74021;50.782;5.500;2023-12-04T02:10:51;14.15;;;8.63;;
83982;SDS011;74021;50.782;5.500;2023-12-04T02:13:16;17.95;;;9.88;;
83982;SDS011;74021;50.782;5.500;2023-12-04T02:15:43;15.40;;;9.07;;
83982;SDS011;74021;50.782;5.500;2023-12-04T02:18:11;16.77;;;10.25;;
83982;SDS011;74021;50.782;5.500;2023-12-04T02:20:38;16.05;;;9.90;;
83982;SDS011;74021;50.782;5.500;2023-12-04T02:23:04;20.27;;;10.70;;
83982;SDS011;74021;50.782;5.500;2023-12-04T02:25:30;16.90;;;10.35;;
83982;SDS011;74021;50.782;5.500;2023-12-04T02:27:59;18.90;;;10.63;;
83982;SDS011;74021;50.782;5.500;2023-12-04T02:30:30;19.55;;;10.40;;
83982;SDS011;74021;50.782;5.500;2023-12-04T02:32:57;18.98;;;10.57;;
83982;SDS011;74021;50.782;5.500;2023-12-04T02:35:26;19.55;;;10.77;;
83982;SDS011;74021;50.782;5.500;2023-12-04T02:37:55;18.80;;;10.43;;
83982;SDS011;74021;50.782;5.500;2023-12-04T02:40:23;17.98;;;10.50;;
83982;SDS011;74021;50.782;5.500;2023-12-04T02:42:49;16.90;;;9.88;;
83982;SDS011;74021;50.782;5.500;2023-12-04T02:45:15;19.33;;;11.05;;
83982;SDS011;74021;50.782;5.500;2023-12-04T02:47:42;20.10;;;10.90;;
83982;SDS011;74021;50.782;5.500;2023-12-04T02:50:08;19.10;;;11.30;;
83982;SDS011;74021;50.782;5.500;2023-12-04T02:52:34;18.95;;;9.88;;
83982;SDS011;74021;50.782;5.500;2023-12-04T02:55:00;19.00;;;10.18;;
83982;SDS011;74021;50.782;5.500;2023-12-04T02:57:26;16.92;;;9.82;;
83982;SDS011;74021;50.782;5.500;2023-12-04T02:59:52;17.20;;;10.00;;
83982;SDS011;74021;50.782;5.500;2023-12-04T03:02:22;18.27;;;10.80;;
83982;SDS011;74021;50.782;5.500;2023-12-04T03:04:48;17.60;;;9.75;;
83982;SDS011;74021;50.782;5.500;2023-12-04T03:07:14;18.42;;;10.38;;
83982;SDS011;74021;50.782;5.500;2023-12-04T03:09:40;18.52;;;11.13;;
83982;SDS011;74021;50.782;5.500;2023-12-04T03:12:06;17.95;;;10.38;;
83982;SDS011;74021;50.782;5.500;2023-12-04T03:14:32;16.98;;;10.10;;
83982;SDS011;74021;50.782;5.500;2023-12-04T03:16:58;18.08;;;10.05;;
83982;SDS011;74021;50.782;5.500;2023-12-04T03:19:27;15.68;;;9.95;;
83982;SDS011;74021;50.782;5.500;2023-12-04T03:21:53;17.38;;;10.27;;
83982;SDS011;74021;50.782;5.500;2023-12-04T03:24:19;16.55;;;9.82;;
83982;SDS011;74021;50.782;5.500;2023-12-04T03:26:45;18.80;;;10.50;;
83982;SDS011;74021;50.782;5.500;2023-12-04T03:29:11;18.05;;;10.57;;
83982;SDS011;74021;50.782;5.500;2023-12-04T03:31:38;16.73;;;9.93;;
83982;SDS011;74021;50.782;5.500;2023-12-04T03:34:04;19.88;;;12.15;;
83982;SDS011;74021;50.782;5.500;2023-12-04T03:36:31;17.02;;;10.07;;
83982;SDS011;74021;50.782;5.500;2023-12-04T03:38:57;16.90;;;9.98;;
83982;SDS011;74021;50.782;5.500;2023-12-04T03:41:23;19.20;;;10.70;;
83982;SDS011;74021;50.782;5.500;2023-12-04T03:43:49;17.75;;;10.35;;
83982;SDS011;74021;50.782;5.500;2023-12-04T03:46:15;16.23;;;9.40;;
83982;SDS011;74021;50.782;5.500;2023-12-04T03:48:41;16.60;;;9.15;;
83982;SDS011;74021;50.782;5.500;2023-12-04T03:51:07;16.55;;;9.82;;
83982;SDS011;74021;50.782;5.500;2023-12-04T03:53:33;15.15;;;9.13;;
83982;SDS011;74021;50.782;5.500;2023-12-04T03:55:59;15.48;;;9.98;;
83982;SDS011;74021;50.782;5.500;2023-12-04T03:58:25;17.60;;;10.52;;
83982;SDS011;74021;50.782;5.500;2023-12-04T04:00:51;16.30;;;9.88;;
83982;SDS011;74021;50.782;5.500;2023-12-04T04:03:17;15.45;;;9.55;;
83982;SDS011;74021;50.782;5.500;2023-12-04T04:05:43;16.20;;;8.85;;
83982;SDS011;74021;50.782;5.500;2023-12-04T04:08:09;13.30;;;8.02;;
83982;SDS011;74021;50.782;5.500;2023-12-04T04:10:36;14.85;;;8.35;;
83982;SDS011;74021;50.782;5.500;2023-12-04T04:13:02;14.25;;;8.50;;
83982;SDS011;74021;50.782;5.500;2023-12-04T04:15:28;14.45;;;7.47;;
83982;SDS011;74021;50.782;5.500;2023-12-04T04:17:54;13.43;;;7.93;;
83982;SDS011;74021;50.782;5.500;2023-12-04T04:20:20;12.48;;;7.88;;
83982;SDS011;74021;50.782;5.500;2023-12-04T04:22:49;14.75;;;8.38;;
83982;SDS011;74021;50.782;5.500;2023-12-04T04:25:17;13.95;;;7.35;;
83982;SDS011;74021;50.782;5.500;2023-12-04T04:27:44;12.50;;;7.10;;
83982;SDS011;74021;50.782;5.500;2023-12-04T04:30:10;13.27;;;6.95;;
83982;SDS011;74021;50.782;5.500;2023-12-04T04:32:38;12.75;;;6.80;;
83982;SDS011;74021;50.782;5.500;2023-12-04T04:35:04;11.50;;;6.90;;
83982;SDS011;74021;50.782;5.500;2023-12-04T04:37:30;11.05;;;6.70;;
83982;SDS011;74021;50.782;5.500;2023-12-04T04:39:57;10.80;;;6.72;;
83982;SDS011;74021;50.782;5.500;2023-12-04T04:42:23;10.02;;;6.72;;
83982;SDS011;74021;50.782;5.500;2023-12-04T04:44:53;9.90;;;6.28;;
83982;SDS011;74021;50.782;5.500;2023-12-04T04:47:19;9.65;;;6.28;;
83982;SDS011;74021;50.782;5.500;2023-12-04T04:49:45;11.45;;;6.50;;
83982;SDS011;74021;50.782;5.500;2023-12-04T04:52:11;11.52;;;6.45;;
83982;SDS011;74021;50.782;5.500;2023-12-04T04:54:37;9.40;;;5.88;;
83982;SDS011;74021;50.782;5.500;2023-12-04T04:57:04;10.52;;;6.50;;
83982;SDS011;74021;50.782;5.500;2023-12-04T04:59:30;10.35;;;5.80;;
83982;SDS011;74021;50.782;5.500;2023-12-04T05:01:57;10.52;;;6.40;;
83982;SDS011;74021;50.782;5.500;2023-12-04T05:04:23;8.63;;;5.93;;
83982;SDS011;74021;50.782;5.500;2023-12-04T05:06:50;9.20;;;5.78;;
83982;SDS011;74021;50.782;5.500;2023-12-04T05:09:16;8.77;;;5.80;;
83982;SDS011;74021;50.782;5.500;2023-12-04T05:11:42;8.82;;;5.55;;
83982;SDS011;74021;50.782;5.500;2023-12-04T05:14:08;8.38;;;5.35;;
83982;SDS011;74021;50.782;5.500;2023-12-04T05:16:34;8.73;;;5.43;;
83982;SDS011;74021;50.782;5.500;2023-12-04T05:19:00;8.38;;;5.28;;
83982;SDS011;74021;50.782;5.500;2023-12-04T05:21:26;11.65;;;6.22;;
83982;SDS011;74021;50.782;5.500;2023-12-04T05:23:52;8.70;;;5.78;;
83982;SDS011;74021;50.782;5.500;2023-12-04T05:26:18;9.40;;;5.80;;
83982;SDS011;74021;50.782;5.500;2023-12-04T05:28:44;9.95;;;5.65;;
83982;SDS011;74021;50.782;5.500;2023-12-04T05:31:11;9.80;;;6.13;;
83982;SDS011;74021;50.782;5.500;2023-12-04T05:33:37;10.48;;;5.30;;
83982;SDS011;74021;50.782;5.500;2023-12-04T05:36:03;10.27;;;5.45;;
83982;SDS011;74021;50.782;5.500;2023-12-04T05:38:29;9.00;;;5.93;;
83982;SDS011;74021;50.782;5.500;2023-12-04T05:40:55;10.15;;;6.07;;
83982;SDS011;74021;50.782;5.500;2023-12-04T05:43:22;7.85;;;5.13;;
83982;SDS011;74021;50.782;5.500;2023-12-04T05:45:48;9.23;;;5.50;;
83982;SDS011;74021;50.782;5.500;2023-12-04T05:48:14;8.27;;;5.47;;
83982;SDS011;74021;50.782;5.500;2023-12-04T05:50:40;7.85;;;4.72;;
83982;SDS011;74021;50.782;5.500;2023-12-04T05:53:06;7.80;;;4.90;;
83982;SDS011;74021;50.782;5.500;2023-12-04T05:55:33;7.50;;;5.20;;
83982;SDS011;74021;50.782;5.500;2023-12-04T05:57:59;8.48;;;4.80;;
83982;SDS011;74021;50.782;5.500;2023-12-04T06:00:25;8.27;;;5.13;;
83982;SDS011;74021;50.782;5.500;2023-12-04T06:02:51;10.20;;;5.55;;
83982;SDS011;74021;50.782;5.500;2023-12-04T06:05:17;8.32;;;5.00;;
83982;SDS011;74021;50.782;5.500;2023-12-04T06:07:44;5.93;;;4.68;;
83982;SDS011;74021;50.782;5.500;2023-12-04T06:10:10;8.18;;;5.18;;
83982;SDS011;74021;50.782;5.500;2023-12-04T06:12:36;9.35;;;4.82;;
83982;SDS011;74021;50.782;5.500;2023-12-04T06:15:03;9.32;;;5.05;;
83982;SDS011;74021;50.782;5.500;2023-12-04T06:17:29;8.70;;;4.97;;
83982;SDS011;74021;50.782;5.500;2023-12-04T06:19:55;8.73;;;4.95;;
83982;SDS011;74021;50.782;5.500;2023-12-04T06:22:22;7.07;;;4.93;;
83982;SDS011;74021;50.782;5.500;2023-12-04T06:24:48;7.10;;;4.40;;
83982;SDS011;74021;50.782;5.500;2023-12-04T06:27:15;7.22;;;4.70;;
83982;SDS011;74021;50.782;5.500;2023-12-04T06:29:45;7.30;;;5.15;;
83982;SDS011;74021;50.782;5.500;2023-12-04T06:32:12;8.15;;;5.72;;
83982;SDS011;74021;50.782;5.500;2023-12-04T06:34:38;6.60;;;4.70;;
83982;SDS011;74021;50.782;5.500;2023-12-04T06:37:11;6.88;;;4.75;;
83982;SDS011;74021;50.782;5.500;2023-12-04T06:39:38;10.32;;;4.68;;
83982;SDS011;74021;50.782;5.500;2023-12-04T06:42:05;6.53;;;4.28;;
83982;SDS011;74021;50.782;5.500;2023-12-04T06:44:32;7.65;;;5.13;;
83982;SDS011;74021;50.782;5.500;2023-12-04T06:47:02;8.57;;;4.90;;
83982;SDS011;74021;50.782;5.500;2023-12-04T06:49:29;7.97;;;4.50;;
83982;SDS011;74021;50.782;5.500;2023-12-04T06:51:59;8.20;;;4.28;;
83982;SDS011;74021;50.782;5.500;2023-12-04T06:54:26;7.68;;;4.65;;
83982;SDS011;74021;50.782;5.500;2023-12-04T06:56:52;7.47;;;4.30;;
83982;SDS011;74021;50.782;5.500;2023-12-04T06:59:18;8.32;;;4.60;;
83982;SDS011;74021;50.782;5.500;2023-12-04T07:01:44;6.40;;;4.22;;
83982;SDS011;74021;50.782;5.500;2023-12-04T07:04:11;8.07;;;4.68;;
83982;SDS011;74021;50.782;5.500;2023-12-04T07:06:37;7.15;;;4.18;;
83982;SDS011;74021;50.782;5.500;2023-12-04T07:09:04;10.27;;;4.30;;
83982;SDS011;74021;50.782;5.500;2023-12-04T07:11:32;9.10;;;3.95;;
83982;SDS011;74021;50.782;5.500;2023-12-04T07:13:58;7.45;;;3.90;;
83982;SDS011;74021;50.782;5.500;2023-12-04T07:16:24;5.88;;;3.90;;
83982;SDS011;74021;50.782;5.500;2023-12-04T07:18:56;9.27;;;4.93;;
83982;SDS011;74021;50.782;5.500;2023-12-04T07:21:48;5.38;;;4.15;;
83982;SDS011;74021;50.782;5.500;2023-12-04T07:24:18;7.38;;;4.03;;
83982;SDS011;74021;50.782;5.500;2023-12-04T07:32:16;6.03;;;3.43;;
83982;SDS011;74021;50.782;5.500;2023-12-04T07:34:45;5.53;;;3.50;;
83982;SDS011;74021;50.782;5.500;2023-12-04T07:37:11;7.50;;;3.67;;
83982;SDS011;74021;50.782;5.500;2023-12-04T07:39:37;5.45;;;3.80;;
83982;SDS011;74021;50.782;5.500;2023-12-04T07:42:03;7.38;;;3.75;;
83982;SDS011;74021;50.782;5.500;2023-12-04T07:44:29;9.07;;;4.05;;
83982;SDS011;74021;50.782;5.500;2023-12-04T07:46:55;6.03;;;3.53;;
83982;SDS011;74021;50.782;5.500;2023-12-04T07:49:22;6.22;;;3.42;;
83982;SDS011;74021;50.782;5.500;2023-12-04T07:51:48;7.38;;;4.13;;
83982;SDS011;74021;50.782;5.500;2023-12-04T07:54:14;9.23;;;4.00;;
83982;SDS011;74021;50.782;5.500;2023-12-04T07:56:40;7.72;;;4.22;;
83982;SDS011;74021;50.782;5.500;2023-12-04T07:59:07;6.15;;;3.72;;
83982;SDS011;74021;50.782;5.500;2023-12-04T08:01:35;6.35;;;3.58;;
83982;SDS011;74021;50.782;5.500;2023-12-04T08:04:01;5.18;;;3.50;;
83982;SDS011;74021;50.782;5.500;2023-12-04T08:06:27;11.52;;;4.63;;
83982;SDS011;74021;50.782;5.500;2023-12-04T08:08:53;6.45;;;3.80;;
83982;SDS011;74021;50.782;5.500;2023-12-04T08:11:20;6.25;;;3.80;;
83982;SDS011;74021;50.782;5.500;2023-12-04T08:13:46;7.22;;;4.00;;
83982;SDS011;74021;50.782;5.500;2023-12-04T08:16:12;6.43;;;3.97;;
83982;SDS011;74021;50.782;5.500;2023-12-04T08:18:42;8.20;;;4.00;;
83982;SDS011;74021;50.782;5.500;2023-12-04T08:21:09;7.38;;;4.13;;
83982;SDS011;74021;50.782;5.500;2023-12-04T08:23:35;11.32;;;4.07;;
83982;SDS011;74021;50.782;5.500;2023-12-04T08:26:01;9.13;;;4.25;;
83982;SDS011;74021;50.782;5.500;2023-12-04T08:28:27;7.75;;;4.30;;
83982;SDS011;74021;50.782;5.500;2023-12-04T08:30:53;6.75;;;4.22;;
83982;SDS011;74021;50.782;5.500;2023-12-04T08:33:19;10.32;;;4.75;;
83982;SDS011;74021;50.782;5.500;2023-12-04T08:35:46;7.82;;;4.68;;
83982;SDS011;74021;50.782;5.500;2023-12-04T08:38:12;6.22;;;4.00;;
83982;SDS011;74021;50.782;5.500;2023-12-04T08:40:38;12.88;;;4.72;;
83982;SDS011;74021;50.782;5.500;2023-12-04T08:43:05;8.82;;;4.82;;
83982;SDS011;74021;50.782;5.500;2023-12-04T08:45:30;8.02;;;4.65;;
83982;SDS011;74021;50.782;5.500;2023-12-04T08:47:57;8.05;;;5.05;;
83982;SDS011;74021;50.782;5.500;2023-12-04T08:50:23;7.47;;;4.75;;
83982;SDS011;74021;50.782;5.500;2023-12-04T08:52:50;11.63;;;4.82;;
83982;SDS011;74021;50.782;5.500;2023-12-04T08:55:17;5.78;;;4.13;;
83982;SDS011;74021;50.782;5.500;2023-12-04T08:57:44;7.22;;;4.93;;
83982;SDS011;74021;50.782;5.500;2023-12-04T09:00:10;6.05;;;4.45;;
83982;SDS011;74021;50.782;5.500;2023-12-04T09:02:37;10.85;;;5.47;;
83982;SDS011;74021;50.782;5.500;2023-12-04T09:05:03;12.75;;;5.55;;
83982;SDS011;74021;50.782;5.500;2023-12-04T09:07:29;7.05;;;4.72;;
83982;SDS011;74021;50.782;5.500;2023-12-04T09:09:59;9.35;;;4.90;;
83982;SDS011;74021;50.782;5.500;2023-12-04T09:12:26;10.95;;;5.35;;
83982;SDS011;74021;50.782;5.500;2023-12-04T09:14:52;10.40;;;4.90;;
83982;SDS011;74021;50.782;5.500;2023-12-04T09:17:18;9.30;;;4.78;;
83982;SDS011;74021;50.782;5.500;2023-12-04T09:19:45;8.38;;;5.38;;
83982;SDS011;74021;50.782;5.500;2023-12-04T09:22:12;7.32;;;4.72;;
83982;SDS011;74021;50.782;5.500;2023-12-04T09:24:42;9.55;;;4.45;;
83982;SDS011;74021;50.782;5.500;2023-12-04T09:27:09;9.15;;;4.85;;
83982;SDS011;74021;50.782;5.500;2023-12-04T09:29:35;9.30;;;4.90;;
83982;SDS011;74021;50.782;5.500;2023-12-04T09:32:01;9.32;;;5.55;;
83982;SDS011;74021;50.782;5.500;2023-12-04T09:34:27;9.20;;;5.07;;
83982;SDS011;74021;50.782;5.500;2023-12-04T09:36:53;8.35;;;5.10;;
83982;SDS011;74021;50.782;5.500;2023-12-04T09:39:19;10.85;;;5.55;;
83982;SDS011;74021;50.782;5.500;2023-12-04T09:41:45;10.95;;;5.32;;
83982;SDS011;74021;50.782;5.500;2023-12-04T09:44:12;11.05;;;5.13;;
83982;SDS011;74021;50.782;5.500;2023-12-04T09:46:38;9.52;;;5.05;;
83982;SDS011;74021;50.782;5.500;2023-12-04T09:49:05;8.68;;;5.03;;
83982;SDS011;74021;50.782;5.500;2023-12-04T09:51:32;9.75;;;5.00;;
83982;SDS011;74021;50.782;5.500;2023-12-04T09:54:02;8.63;;;5.68;;
83982;SDS011;74021;50.782;5.500;2023-12-04T09:56:32;9.38;;;6.32;;
83982;SDS011;74021;50.782;5.500;2023-12-04T09:59:19;9.18;;;5.75;;
83982;SDS011;74021;50.782;5.500;2023-12-04T10:01:52;9.55;;;5.70;;
83982;SDS011;74021;50.782;5.500;2023-12-04T10:06:46;11.55;;;6.10;;
83982;SDS011;74021;50.782;5.500;2023-12-04T10:27:49;10.32;;;6.90;;
83982;SDS011;74021;50.782;5.500;2023-12-04T10:30:29;12.38;;;7.32;;
83982;SDS011;74021;50.782;5.500;2023-12-04T10:35:20;14.25;;;7.35;;
83982;SDS011;74021;50.782;5.500;2023-12-04T10:43:22;16.38;;;7.95;;
83982;SDS011;74021;50.782;5.500;2023-12-04T10:51:46;16.27;;;9.50;;
83982;SDS011;74021;50.782;5.500;2023-12-04T10:54:42;14.30;;;9.35;;
83982;SDS011;74021;50.782;5.500;2023-12-04T10:57:36;13.27;;;8.70;;
83982;SDS011;74021;50.782;5.500;2023-12-04T11:03:40;16.58;;;8.80;;
83982;SDS011;74021;50.782;5.500;2023-12-04T11:08:42;17.73;;;9.00;;
83982;SDS011;74021;50.782;5.500;2023-12-04T11:11:19;14.65;;;8.13;;
83982;SDS011;74021;50.782;5.500;2023-12-04T11:13:48;18.25;;;9.63;;
83982;SDS011;74021;50.782;5.500;2023-12-04T11:16:23;14.95;;;8.00;;
83982;SDS011;74021;50.782;5.500;2023-12-04T11:22:03;12.63;;;7.85;;
83982;SDS011;74021;50.782;5.500;2023-12-04T11:31:16;11.55;;;7.32;;
83982;SDS011;74021;50.782;5.500;2023-12-04T11:40:11;13.20;;;7.15;;
83982;SDS011;74021;50.782;5.500;2023-12-04T11:58:21;9.68;;;6.72;;
83982;SDS011;74021;50.782;5.500;2023-12-04T12:01:19;10.13;;;7.07;;
83982;SDS011;74021;50.782;5.500;2023-12-04T12:07:26;9.65;;;6.25;;
83982;SDS011;74021;50.782;5.500;2023-12-04T12:09:52;8.25;;;5.82;;
83982;SDS011;74021;50.782;5.500;2023-12-04T12:15:13;7.05;;;5.32;;
83982;SDS011;74021;50.782;5.500;2023-12-04T12:17:40;7.50;;;5.57;;
83982;SDS011;74021;50.782;5.500;2023-12-04T12:20:07;8.32;;;6.50;;
83982;SDS011;74021;50.782;5.500;2023-12-04T12:22:34;8.15;;;5.45;;
83982;SDS011;74021;50.782;5.500;2023-12-04T12:25:03;7.68;;;5.20;;
83982;SDS011;74021;50.782;5.500;2023-12-04T12:27:30;9.60;;;5.95;;
83982;SDS011;74021;50.782;5.500;2023-12-04T12:29:56;9.65;;;6.35;;
83982;SDS011;74021;50.782;5.500;2023-12-04T12:32:22;8.15;;;5.70;;
83982;SDS011;74021;50.782;5.500;2023-12-04T12:34:52;7.32;;;5.13;;
83982;SDS011;74021;50.782;5.500;2023-12-04T12:37:21;7.03;;;5.30;;
83982;SDS011;74021;50.782;5.500;2023-12-04T12:44:59;7.00;;;4.85;;
83982;SDS011;74021;50.782;5.500;2023-12-04T12:47:27;6.18;;;4.35;;
83982;SDS011;74021;50.782;5.500;2023-12-04T12:49:54;5.00;;;3.70;;
83982;SDS011;74021;50.782;5.500;2023-12-04T12:52:20;6.07;;;4.43;;
83982;SDS011;74021;50.782;5.500;2023-12-04T12:54:46;5.18;;;4.05;;
83982;SDS011;74021;50.782;5.500;2023-12-04T12:57:12;5.28;;;4.13;;
83982;SDS011;74021;50.782;5.500;2023-12-04T13:07:08;6.07;;;3.50;;
83982;SDS011;74021;50.782;5.500;2023-12-04T13:09:35;4.80;;;3.80;;
83982;SDS011;74021;50.782;5.500;2023-12-04T13:12:02;4.53;;;3.90;;
83982;SDS011;74021;50.782;5.500;2023-12-04T13:14:29;5.75;;;4.25;;
83982;SDS011;74021;50.782;5.500;2023-12-04T13:16:55;4.93;;;3.88;;
83982;SDS011;74021;50.782;5.500;2023-12-04T13:19:24;5.85;;;4.43;;
83982;SDS011;74021;50.782;5.500;2023-12-04T13:21:50;6.15;;;4.55;;
83982;SDS011;74021;50.782;5.500;2023-12-04T13:24:16;5.00;;;4.05;;
83982;SDS011;74021;50.782;5.500;2023-12-04T13:26:43;5.43;;;4.88;;
83982;SDS011;74021;50.782;5.500;2023-12-04T13:34:45;8.82;;;5.88;;
83982;SDS011;74021;50.782;5.500;2023-12-04T13:47:27;9.18;;;6.32;;
83982;SDS011;74021;50.782;5.500;2023-12-04T13:49:53;7.65;;;6.07;;
83982;SDS011;74021;50.782;5.500;2023-12-04T14:23:00;6.93;;;5.47;;
83982;SDS011;74021;50.782;5.500;2023-12-04T14:25:57;11.38;;;6.35;;
83982;SDS011;74021;50.782;5.500;2023-12-04T14:28:23;8.23;;;5.80;;
83982;SDS011;74021;50.782;5.500;2023-12-04T14:30:49;7.85;;;6.05;;
83982;SDS011;74021;50.782;5.500;2023-12-04T14:33:15;7.82;;;6.50;;
83982;SDS011;74021;50.782;5.500;2023-12-04T14:35:41;7.97;;;5.88;;
83982;SDS011;74021;50.782;5.500;2023-12-04T14:43:37;6.90;;;5.45;;
83982;SDS011;74021;50.782;5.500;2023-12-04T14:46:13;8.48;;;5.85;;
83982;SDS011;74021;50.782;5.500;2023-12-04T14:51:09;7.25;;;5.70;;
83982;SDS011;74021;50.782;5.500;2023-12-04T14:53:37;8.02;;;6.60;;
83982;SDS011;74021;50.782;5.500;2023-12-04T14:56:34;8.77;;;6.88;;
83982;SDS011;74021;50.782;5.500;2023-12-04T14:59:29;11.77;;;6.25;;
83982;SDS011;74021;50.782;5.500;2023-12-04T15:02:08;7.93;;;5.72;;
83982;SDS011;74021;50.782;5.500;2023-12-04T15:04:55;8.60;;;5.53;;
83982;SDS011;74021;50.782;5.500;2023-12-04T15:16:56;8.40;;;5.97;;
83982;SDS011;74021;50.782;5.500;2023-12-04T15:31:31;7.43;;;5.97;;
83982;SDS011;74021;50.782;5.500;2023-12-04T15:33:58;8.13;;;5.93;;
83982;SDS011;74021;50.782;5.500;2023-12-04T15:36:24;7.95;;;5.65;;
83982;SDS011;74021;50.782;5.500;2023-12-04T15:38:50;8.38;;;5.90;;
83982;SDS011;74021;50.782;5.500;2023-12-04T15:41:16;9.15;;;6.00;;
83982;SDS011;74021;50.782;5.500;2023-12-04T15:43:45;7.60;;;5.95;;
83982;SDS011;74021;50.782;5.500;2023-12-04T15:46:14;7.03;;;5.78;;
83982;SDS011;74021;50.782;5.500;2023-12-04T15:48:43;9.25;;;5.45;;
83982;SDS011;74021;50.782;5.500;2023-12-04T15:51:18;6.35;;;5.32;;
83982;SDS011;74021;50.782;5.500;2023-12-04T15:58:55;7.85;;;5.85;;
83982;SDS011;74021;50.782;5.500;2023-12-04T16:01:21;9.90;;;6.07;;
83982;SDS011;74021;50.782;5.500;2023-12-04T16:03:48;7.40;;;5.07;;
83982;SDS011;74021;50.782;5.500;2023-12-04T16:06:15;7.95;;;5.93;;
83982;SDS011;74021;50.782;5.500;2023-12-04T16:08:41;6.88;;;5.22;;
83982;SDS011;74021;50.782;5.500;2023-12-04T16:11:08;8.80;;;5.30;;
83982;SDS011;74021;50.782;5.500;2023-12-04T16:13:34;7.80;;;6.00;;
83982;SDS011;74021;50.782;5.500;2023-12-04T16:16:00;9.50;;;6.47;;
83982;SDS011;74021;50.782;5.500;2023-12-04T16:18:28;8.77;;;6.13;;
83982;SDS011;74021;50.782;5.500;2023-12-04T16:20:57;8.65;;;5.90;;
83982;SDS011;74021;50.782;5.500;2023-12-04T16:23:24;8.68;;;5.80;;
83982;SDS011;74021;50.782;5.500;2023-12-04T16:25:50;7.20;;;5.22;;
83982;SDS011;74021;50.782;5.500;2023-12-04T16:28:18;6.13;;;5.20;;
83982;SDS011;74021;50.782;5.500;2023-12-04T16:30:44;5.70;;;4.75;;
83982;SDS011;74021;50.782;5.500;2023-12-04T16:33:10;7.10;;;5.40;;
83982;SDS011;74021;50.782;5.500;2023-12-04T16:40:47;7.30;;;5.53;;
83982;SDS011;74021;50.782;5.500;2023-12-04T16:43:13;6.10;;;5.40;;
83982;SDS011;74021;50.782;5.500;2023-12-04T16:45:39;7.20;;;5.30;;
83982;SDS011;74021;50.782;5.500;2023-12-04T16:48:05;7.72;;;5.45;;
83982;SDS011;74021;50.782;5.500;2023-12-04T16:50:31;7.30;;;5.97;;
83982;SDS011;74021;50.782;5.500;2023-12-04T16:52:57;5.68;;;4.88;;
83982;SDS011;74021;50.782;5.500;2023-12-04T16:55:23;5.22;;;4.45;;
83982;SDS011;74021;50.782;5.500;2023-12-04T17:00:25;7.30;;;5.22;;
83982;SDS011;74021;50.782;5.500;2023-12-04T17:14:21;8.52;;;5.65;;
83982;SDS011;74021;50.782;5.500;2023-12-04T17:16:47;7.60;;;5.90;;
83982;SDS011;74021;50.782;5.500;2023-12-04T17:19:16;5.20;;;4.65;;
83982;SDS011;74021;50.782;5.500;2023-12-04T17:36:48;6.18;;;4.80;;
83982;SDS011;74021;50.782;5.500;2023-12-04T17:39:14;5.30;;;4.45;;
83982;SDS011;74021;50.782;5.500;2023-12-04T17:41:42;6.20;;;4.32;;
83982;SDS011;74021;50.782;5.500;2023-12-04T17:44:10;6.10;;;5.18;;
83982;SDS011;74021;50.782;5.500;2023-12-04T17:46:37;5.78;;;4.55;;
83982;SDS011;74021;50.782;5.500;2023-12-04T17:49:03;5.97;;;4.75;;
83982;SDS011;74021;50.782;5.500;2023-12-04T17:51:29;5.18;;;4.55;;
83982;SDS011;74021;50.782;5.500;2023-12-04T17:53:55;6.72;;;4.80;;
83982;SDS011;74021;50.782;5.500;2023-12-04T17:56:21;7.13;;;5.20;;
83982;SDS011;74021;50.782;5.500;2023-12-04T17:58:47;6.40;;;4.97;;
83982;SDS011;74021;50.782;5.500;2023-12-04T18:01:16;8.02;;;5.30;;
83982;SDS011;74021;50.782;5.500;2023-12-04T18:03:42;8.23;;;5.10;;
83982;SDS011;74021;50.782;5.500;2023-12-04T18:06:08;4.70;;;3.92;;
83982;SDS011;74021;50.782;5.500;2023-12-04T18:08:35;7.30;;;4.72;;
83982;SDS011;74021;50.782;5.500;2023-12-04T18:11:02;9.95;;;4.68;;
83982;SDS011;74021;50.782;5.500;2023-12-04T18:13:28;4.70;;;3.60;;
83982;SDS011;74021;50.782;5.500;2023-12-04T18:15:54;5.53;;;4.80;;